Terminal Aerodrome Forecast
Issued by NWS

Home | Current Version | Previous Version | Text Only | Print | Product List | Glossary On
Versions: 1 2 3 4 5 6 7 8 9 10 11 12
397
FTUS42 KMLB 210543
TAFFPR
TAF
KFPR 210543Z 2106/2206 12012KT P6SM SCT020 SCT050
     FM211500 12014G20KT P6SM SCT035
     FM220000 10009KT P6SM SCT030=

USA.gov is the U.S. government's official web portal to all federal, state and local government web resources and services.